sensor_id;sensor_type;location;lat;lon;timestamp;temperature;humidity
53422;DHT22;39319;52.944;5.928;2023-05-31T00:00:31;13.10;93.30
53422;DHT22;39319;52.944;5.928;2023-05-31T00:02:57;13.10;93.30
53422;DHT22;39319;52.944;5.928;2023-05-31T00:05:23;13.10;93.20
53422;DHT22;39319;52.944;5.928;2023-05-31T00:07:48;13.00;93.30
53422;DHT22;39319;52.944;5.928;2023-05-31T00:10:14;13.00;93.20
53422;DHT22;39319;52.944;5.928;2023-05-31T00:12:40;13.00;93.30
53422;DHT22;39319;52.944;5.928;2023-05-31T00:15:06;12.80;93.20
53422;DHT22;39319;52.944;5.928;2023-05-31T00:17:32;12.80;93.30
53422;DHT22;39319;52.944;5.928;2023-05-31T00:19:57;12.90;93.30
53422;DHT22;39319;52.944;5.928;2023-05-31T00:22:23;12.80;93.30
53422;DHT22;39319;52.944;5.928;2023-05-31T00:24:49;12.80;93.20
53422;DHT22;39319;52.944;5.928;2023-05-31T00:27:14;12.70;93.20
53422;DHT22;39319;52.944;5.928;2023-05-31T00:29:40;12.70;93.30
53422;DHT22;39319;52.944;5.928;2023-05-31T00:32:06;12.70;93.30
53422;DHT22;39319;52.944;5.928;2023-05-31T00:34:32;12.70;93.40
53422;DHT22;39319;52.944;5.928;2023-05-31T00:36:58;12.60;93.40
53422;DHT22;39319;52.944;5.928;2023-05-31T00:39:23;12.60;93.40
53422;DHT22;39319;52.944;5.928;2023-05-31T00:41:49;12.50;93.40
53422;DHT22;39319;52.944;5.928;2023-05-31T00:44:15;12.60;93.60
53422;DHT22;39319;52.944;5.928;2023-05-31T00:46:41;12.50;93.30
53422;DHT22;39319;52.944;5.928;2023-05-31T00:49:07;12.60;93.60
53422;DHT22;39319;52.944;5.928;2023-05-31T00:51:33;12.60;93.60
53422;DHT22;39319;52.944;5.928;2023-05-31T00:54:00;12.50;93.50
53422;DHT22;39319;52.944;5.928;2023-05-31T00:56:27;12.40;93.60
53422;DHT22;39319;52.944;5.928;2023-05-31T00:58:55;12.40;93.50
53422;DHT22;39319;52.944;5.928;2023-05-31T01:01:22;12.40;93.50
53422;DHT22;39319;52.944;5.928;2023-05-31T01:03:56;12.40;93.60
53422;DHT22;39319;52.944;5.928;2023-05-31T01:06:22;12.40;93.60
53422;DHT22;39319;52.944;5.928;2023-05-31T01:08:49;12.50;93.50
53422;DHT22;39319;52.944;5.928;2023-05-31T01:14:31;12.40;93.70
53422;DHT22;39319;52.944;5.928;2023-05-31T01:17:32;12.50;93.60
53422;DHT22;39319;52.944;5.928;2023-05-31T01:20:08;12.40;93.60
53422;DHT22;39319;52.944;5.928;2023-05-31T01:28:06;12.30;93.60
53422;DHT22;39319;52.944;5.928;2023-05-31T01:30:37;12.30;93.80
53422;DHT22;39319;52.944;5.928;2023-05-31T01:33:08;12.20;93.70
53422;DHT22;39319;52.944;5.928;2023-05-31T01:35:34;12.20;93.70
53422;DHT22;39319;52.944;5.928;2023-05-31T01:38:00;12.20;93.60
53422;DHT22;39319;52.944;5.928;2023-05-31T01:40:26;12.20;93.70
53422;DHT22;39319;52.944;5.928;2023-05-31T01:42:51;12.10;93.60
53422;DHT22;39319;52.944;5.928;2023-05-31T01:45:18;12.10;93.60
53422;DHT22;39319;52.944;5.928;2023-05-31T01:47:46;12.20;93.70
53422;DHT22;39319;52.944;5.928;2023-05-31T01:50:13;12.10;93.80
53422;DHT22;39319;52.944;5.928;2023-05-31T01:52:39;12.00;93.60
53422;DHT22;39319;52.944;5.928;2023-05-31T01:55:06;12.00;93.80
53422;DHT22;39319;52.944;5.928;2023-05-31T01:57:33;12.00;93.80
53422;DHT22;39319;52.944;5.928;2023-05-31T02:00:02;12.00;93.80
53422;DHT22;39319;52.944;5.928;2023-05-31T02:02:34;12.00;93.80
53422;DHT22;39319;52.944;5.928;2023-05-31T02:05:07;12.00;93.80
53422;DHT22;39319;52.944;5.928;2023-05-31T02:07:34;12.10;93.90
53422;DHT22;39319;52.944;5.928;2023-05-31T02:10:01;12.00;93.80
53422;DHT22;39319;52.944;5.928;2023-05-31T02:12:28;12.00;94.00
53422;DHT22;39319;52.944;5.928;2023-05-31T02:14:53;12.00;93.90
53422;DHT22;39319;52.944;5.928;2023-05-31T02:17:19;12.00;94.00
53422;DHT22;39319;52.944;5.928;2023-05-31T02:19:50;12.00;94.20
53422;DHT22;39319;52.944;5.928;2023-05-31T02:22:19;11.90;94.10
53422;DHT22;39319;52.944;5.928;2023-05-31T02:24:45;11.90;94.00
53422;DHT22;39319;52.944;5.928;2023-05-31T02:27:12;11.70;94.00
53422;DHT22;39319;52.944;5.928;2023-05-31T02:29:38;11.80;94.10
53422;DHT22;39319;52.944;5.928;2023-05-31T02:32:06;11.90;94.10
53422;DHT22;39319;52.944;5.928;2023-05-31T02:34:33;11.90;94.30
53422;DHT22;39319;52.944;5.928;2023-05-31T02:37:00;11.80;94.30
53422;DHT22;39319;52.944;5.928;2023-05-31T02:39:26;11.80;94.30
53422;DHT22;39319;52.944;5.928;2023-05-31T02:41:51;11.90;94.40
53422;DHT22;39319;52.944;5.928;2023-05-31T02:44:17;11.80;94.30
53422;DHT22;39319;52.944;5.928;2023-05-31T02:46:45;11.70;94.20
53422;DHT22;39319;52.944;5.928;2023-05-31T02:49:11;11.80;94.30
53422;DHT22;39319;52.944;5.928;2023-05-31T02:51:37;11.80;94.50
53422;DHT22;39319;52.944;5.928;2023-05-31T02:54:03;11.80;94.70
53422;DHT22;39319;52.944;5.928;2023-05-31T02:56:28;11.80;94.70
53422;DHT22;39319;52.944;5.928;2023-05-31T02:58:54;11.80;94.50
53422;DHT22;39319;52.944;5.928;2023-05-31T03:01:20;11.80;94.60
53422;DHT22;39319;52.944;5.928;2023-05-31T03:03:48;11.80;94.60
53422;DHT22;39319;52.944;5.928;2023-05-31T03:06:13;11.90;94.40
53422;DHT22;39319;52.944;5.928;2023-05-31T03:08:45;11.80;94.50
53422;DHT22;39319;52.944;5.928;2023-05-31T03:11:11;11.80;94.50
53422;DHT22;39319;52.944;5.928;2023-05-31T03:13:37;11.80;94.60
53422;DHT22;39319;52.944;5.928;2023-05-31T03:16:02;11.70;94.40
53422;DHT22;39319;52.944;5.928;2023-05-31T03:18:28;11.70;94.50
53422;DHT22;39319;52.944;5.928;2023-05-31T03:20:54;11.70;94.50
53422;DHT22;39319;52.944;5.928;2023-05-31T03:23:20;11.70;94.60
53422;DHT22;39319;52.944;5.928;2023-05-31T03:25:46;11.70;94.40
53422;DHT22;39319;52.944;5.928;2023-05-31T03:28:13;11.70;94.50
53422;DHT22;39319;52.944;5.928;2023-05-31T03:30:39;11.70;94.50
53422;DHT22;39319;52.944;5.928;2023-05-31T03:33:05;11.70;94.70
53422;DHT22;39319;52.944;5.928;2023-05-31T03:35:31;11.70;94.50
53422;DHT22;39319;52.944;5.928;2023-05-31T03:37:56;11.60;94.50
53422;DHT22;39319;52.944;5.928;2023-05-31T03:40:22;11.60;94.70
53422;DHT22;39319;52.944;5.928;2023-05-31T03:42:48;11.70;94.70
53422;DHT22;39319;52.944;5.928;2023-05-31T03:45:14;11.70;94.60
53422;DHT22;39319;52.944;5.928;2023-05-31T03:47:39;11.60;94.60
53422;DHT22;39319;52.944;5.928;2023-05-31T03:50:06;11.70;94.80
53422;DHT22;39319;52.944;5.928;2023-05-31T03:52:32;11.60;94.70
53422;DHT22;39319;52.944;5.928;2023-05-31T03:55:00;11.60;94.80
53422;DHT22;39319;52.944;5.928;2023-05-31T03:57:26;11.60;94.70
53422;DHT22;39319;52.944;5.928;2023-05-31T03:59:51;11.60;94.90
53422;DHT22;39319;52.944;5.928;2023-05-31T04:02:17;11.60;95.00
53422;DHT22;39319;52.944;5.928;2023-05-31T04:04:43;11.60;95.00
53422;DHT22;39319;52.944;5.928;2023-05-31T04:07:08;11.60;95.10
53422;DHT22;39319;52.944;5.928;2023-05-31T04:09:34;11.60;95.30
53422;DHT22;39319;52.944;5.928;2023-05-31T04:12:00;11.60;95.40
53422;DHT22;39319;52.944;5.928;2023-05-31T04:14:28;11.70;95.30
53422;DHT22;39319;52.944;5.928;2023-05-31T04:16:53;11.70;95.40
53422;DHT22;39319;52.944;5.928;2023-05-31T04:19:19;11.70;95.50
53422;DHT22;39319;52.944;5.928;2023-05-31T04:21:45;11.70;95.40
53422;DHT22;39319;52.944;5.928;2023-05-31T04:24:11;11.80;95.60
53422;DHT22;39319;52.944;5.928;2023-05-31T04:26:36;11.80;95.70
53422;DHT22;39319;52.944;5.928;2023-05-31T04:29:03;11.80;95.80
53422;DHT22;39319;52.944;5.928;2023-05-31T04:31:29;11.80;96.00
53422;DHT22;39319;52.944;5.928;2023-05-31T04:33:55;11.80;95.90
53422;DHT22;39319;52.944;5.928;2023-05-31T04:36:23;11.90;96.20
53422;DHT22;39319;52.944;5.928;2023-05-31T04:38:49;12.00;96.20
53422;DHT22;39319;52.944;5.928;2023-05-31T04:41:17;12.00;96.30
53422;DHT22;39319;52.944;5.928;2023-05-31T04:43:43;12.00;96.40
53422;DHT22;39319;52.944;5.928;2023-05-31T04:46:09;12.10;96.50
53422;DHT22;39319;52.944;5.928;2023-05-31T04:48:38;12.20;96.60
53422;DHT22;39319;52.944;5.928;2023-05-31T04:51:04;12.20;96.80
53422;DHT22;39319;52.944;5.928;2023-05-31T04:53:30;12.20;96.80
53422;DHT22;39319;52.944;5.928;2023-05-31T04:55:56;12.30;96.90
53422;DHT22;39319;52.944;5.928;2023-05-31T04:58:21;12.30;96.90
53422;DHT22;39319;52.944;5.928;2023-05-31T05:00:47;12.30;96.90
53422;DHT22;39319;52.944;5.928;2023-05-31T05:03:13;12.50;97.00
53422;DHT22;39319;52.944;5.928;2023-05-31T05:05:39;12.50;97.10
53422;DHT22;39319;52.944;5.928;2023-05-31T05:08:06;12.40;97.20
53422;DHT22;39319;52.944;5.928;2023-05-31T05:10:31;12.40;97.10
53422;DHT22;39319;52.944;5.928;2023-05-31T05:12:57;12.40;97.20
53422;DHT22;39319;52.944;5.928;2023-05-31T05:15:23;12.50;97.20
53422;DHT22;39319;52.944;5.928;2023-05-31T05:17:48;12.50;97.30
53422;DHT22;39319;52.944;5.928;2023-05-31T05:20:14;12.60;97.50
53422;DHT22;39319;52.944;5.928;2023-05-31T05:22:42;12.70;97.40
53422;DHT22;39319;52.944;5.928;2023-05-31T05:25:08;12.70;97.50
53422;DHT22;39319;52.944;5.928;2023-05-31T05:27:34;12.70;97.50
53422;DHT22;39319;52.944;5.928;2023-05-31T05:30:00;12.70;97.50
53422;DHT22;39319;52.944;5.928;2023-05-31T05:32:26;12.80;97.60
53422;DHT22;39319;52.944;5.928;2023-05-31T05:34:51;12.80;97.70
53422;DHT22;39319;52.944;5.928;2023-05-31T05:37:17;12.90;97.70
53422;DHT22;39319;52.944;5.928;2023-05-31T05:39:43;12.90;97.80
53422;DHT22;39319;52.944;5.928;2023-05-31T05:42:08;13.10;97.80
53422;DHT22;39319;52.944;5.928;2023-05-31T05:44:34;13.10;97.80
53422;DHT22;39319;52.944;5.928;2023-05-31T05:47:00;13.10;97.90
53422;DHT22;39319;52.944;5.928;2023-05-31T05:49:26;13.10;97.90
53422;DHT22;39319;52.944;5.928;2023-05-31T05:51:52;13.20;97.90
53422;DHT22;39319;52.944;5.928;2023-05-31T05:54:18;13.30;97.90
53422;DHT22;39319;52.944;5.928;2023-05-31T05:56:43;13.40;97.80
53422;DHT22;39319;52.944;5.928;2023-05-31T05:59:09;13.40;97.90
53422;DHT22;39319;52.944;5.928;2023-05-31T06:01:35;13.60;97.90
53422;DHT22;39319;52.944;5.928;2023-05-31T06:04:01;13.60;97.90
53422;DHT22;39319;52.944;5.928;2023-05-31T06:06:27;13.60;97.70
53422;DHT22;39319;52.944;5.928;2023-05-31T06:08:52;13.70;97.90
53422;DHT22;39319;52.944;5.928;2023-05-31T06:11:18;13.80;98.00
53422;DHT22;39319;52.944;5.928;2023-05-31T06:13:44;13.70;98.00
53422;DHT22;39319;52.944;5.928;2023-05-31T06:16:10;14.00;98.10
53422;DHT22;39319;52.944;5.928;2023-05-31T06:18:35;13.90;98.10
53422;DHT22;39319;52.944;5.928;2023-05-31T06:21:01;14.10;97.90
53422;DHT22;39319;52.944;5.928;2023-05-31T06:23:28;14.10;97.80
53422;DHT22;39319;52.944;5.928;2023-05-31T06:25:54;14.10;98.00
53422;DHT22;39319;52.944;5.928;2023-05-31T06:28:20;14.20;98.20
53422;DHT22;39319;52.944;5.928;2023-05-31T06:30:45;14.30;98.10
53422;DHT22;39319;52.944;5.928;2023-05-31T06:33:12;14.30;97.90
53422;DHT22;39319;52.944;5.928;2023-05-31T06:35:38;14.40;98.00
53422;DHT22;39319;52.944;5.928;2023-05-31T06:38:06;14.40;97.90
53422;DHT22;39319;52.944;5.928;2023-05-31T06:40:32;14.50;97.90
53422;DHT22;39319;52.944;5.928;2023-05-31T06:42:58;14.50;97.80
53422;DHT22;39319;52.944;5.928;2023-05-31T06:45:24;14.70;97.90
53422;DHT22;39319;52.944;5.928;2023-05-31T06:47:50;14.70;97.80
53422;DHT22;39319;52.944;5.928;2023-05-31T06:50:16;14.80;97.70
53422;DHT22;39319;52.944;5.928;2023-05-31T06:52:41;14.90;97.90
53422;DHT22;39319;52.944;5.928;2023-05-31T06:55:08;14.90;97.90
53422;DHT22;39319;52.944;5.928;2023-05-31T06:57:34;15.00;97.80
53422;DHT22;39319;52.944;5.928;2023-05-31T06:59:59;15.10;97.80
53422;DHT22;39319;52.944;5.928;2023-05-31T07:02:25;15.20;97.70
53422;DHT22;39319;52.944;5.928;2023-05-31T07:04:52;15.20;97.40
53422;DHT22;39319;52.944;5.928;2023-05-31T07:07:18;15.30;97.60
53422;DHT22;39319;52.944;5.928;2023-05-31T07:09:44;15.30;97.60
53422;DHT22;39319;52.944;5.928;2023-05-31T07:12:09;15.40;97.60
53422;DHT22;39319;52.944;5.928;2023-05-31T07:14:38;15.50;97.30
53422;DHT22;39319;52.944;5.928;2023-05-31T07:17:04;15.50;97.20
53422;DHT22;39319;52.944;5.928;2023-05-31T07:19:30;15.60;97.30
53422;DHT22;39319;52.944;5.928;2023-05-31T07:21:56;15.80;97.20
53422;DHT22;39319;52.944;5.928;2023-05-31T07:24:22;15.80;97.10
53422;DHT22;39319;52.944;5.928;2023-05-31T07:26:50;15.90;97.10
53422;DHT22;39319;52.944;5.928;2023-05-31T07:29:16;16.00;97.10
53422;DHT22;39319;52.944;5.928;2023-05-31T07:31:41;16.10;97.30
53422;DHT22;39319;52.944;5.928;2023-05-31T07:34:07;16.10;96.60
53422;DHT22;39319;52.944;5.928;2023-05-31T07:36:35;16.20;96.50
53422;DHT22;39319;52.944;5.928;2023-05-31T07:39:00;16.30;96.50
53422;DHT22;39319;52.944;5.928;2023-05-31T07:41:26;16.50;96.80
53422;DHT22;39319;52.944;5.928;2023-05-31T07:43:52;16.50;96.80
53422;DHT22;39319;52.944;5.928;2023-05-31T07:46:20;16.70;96.40
53422;DHT22;39319;52.944;5.928;2023-05-31T07:48:46;16.70;96.20
53422;DHT22;39319;52.944;5.928;2023-05-31T07:51:11;16.80;96.10
53422;DHT22;39319;52.944;5.928;2023-05-31T07:53:37;17.00;95.90
53422;DHT22;39319;52.944;5.928;2023-05-31T07:56:06;17.00;95.80
53422;DHT22;39319;52.944;5.928;2023-05-31T07:58:34;17.20;95.70
53422;DHT22;39319;52.944;5.928;2023-05-31T08:01:00;17.30;95.30
53422;DHT22;39319;52.944;5.928;2023-05-31T08:03:25;17.40;94.90
53422;DHT22;39319;52.944;5.928;2023-05-31T08:05:52;17.50;95.00
53422;DHT22;39319;52.944;5.928;2023-05-31T08:08:18;17.60;94.70
53422;DHT22;39319;52.944;5.928;2023-05-31T08:10:43;17.80;94.90
53422;DHT22;39319;52.944;5.928;2023-05-31T08:13:10;17.80;94.80
53422;DHT22;39319;52.944;5.928;2023-05-31T08:15:36;17.90;94.70
53422;DHT22;39319;52.944;5.928;2023-05-31T08:18:02;17.90;94.10
53422;DHT22;39319;52.944;5.928;2023-05-31T08:20:28;18.00;94.60
53422;DHT22;39319;52.944;5.928;2023-05-31T08:22:54;18.10;94.20
53422;DHT22;39319;52.944;5.928;2023-05-31T08:25:21;18.20;93.50
53422;DHT22;39319;52.944;5.928;2023-05-31T08:27:48;18.30;93.70
53422;DHT22;39319;52.944;5.928;2023-05-31T08:30:13;18.40;93.70
53422;DHT22;39319;52.944;5.928;2023-05-31T08:32:39;18.50;93.20
53422;DHT22;39319;52.944;5.928;2023-05-31T08:35:06;18.60;93.50
53422;DHT22;39319;52.944;5.928;2023-05-31T08:37:34;18.70;92.70
53422;DHT22;39319;52.944;5.928;2023-05-31T08:40:01;18.80;92.40
53422;DHT22;39319;52.944;5.928;2023-05-31T08:42:49;19.00;92.50
53422;DHT22;39319;52.944;5.928;2023-05-31T08:45:17;19.20;92.80
53422;DHT22;39319;52.944;5.928;2023-05-31T08:50:30;19.30;91.90
53422;DHT22;39319;52.944;5.928;2023-05-31T08:52:57;19.40;91.40
53422;DHT22;39319;52.944;5.928;2023-05-31T08:55:24;19.50;91.10
53422;DHT22;39319;52.944;5.928;2023-05-31T08:57:51;19.60;91.40
53422;DHT22;39319;52.944;5.928;2023-05-31T09:00:18;19.70;91.30
53422;DHT22;39319;52.944;5.928;2023-05-31T09:02:46;19.80;91.50
53422;DHT22;39319;52.944;5.928;2023-05-31T09:05:13;19.90;91.30
53422;DHT22;39319;52.944;5.928;2023-05-31T09:07:39;20.00;91.10
53422;DHT22;39319;52.944;5.928;2023-05-31T09:10:06;20.10;90.20
53422;DHT22;39319;52.944;5.928;2023-05-31T09:12:35;20.10;90.40
53422;DHT22;39319;52.944;5.928;2023-05-31T09:15:01;20.20;90.30
53422;DHT22;39319;52.944;5.928;2023-05-31T09:17:27;20.40;90.40
53422;DHT22;39319;52.944;5.928;2023-05-31T09:19:54;20.40;89.00
53422;DHT22;39319;52.944;5.928;2023-05-31T09:22:24;20.40;89.70
53422;DHT22;39319;52.944;5.928;2023-05-31T09:24:57;20.40;89.20
53422;DHT22;39319;52.944;5.928;2023-05-31T09:27:23;20.60;90.10
53422;DHT22;39319;52.944;5.928;2023-05-31T09:29:53;20.60;89.90
53422;DHT22;39319;52.944;5.928;2023-05-31T09:32:19;20.70;90.10
53422;DHT22;39319;52.944;5.928;2023-05-31T09:34:45;20.80;89.60
53422;DHT22;39319;52.944;5.928;2023-05-31T09:37:30;21.00;90.00
53422;DHT22;39319;52.944;5.928;2023-05-31T09:39:56;21.20;88.80
53422;DHT22;39319;52.944;5.928;2023-05-31T09:42:25;21.40;87.30
53422;DHT22;39319;52.944;5.928;2023-05-31T09:44:52;21.50;88.00
53422;DHT22;39319;52.944;5.928;2023-05-31T09:47:25;21.50;87.80
53422;DHT22;39319;52.944;5.928;2023-05-31T09:49:53;21.50;86.10
53422;DHT22;39319;52.944;5.928;2023-05-31T09:52:29;21.60;87.00
53422;DHT22;39319;52.944;5.928;2023-05-31T09:55:07;21.70;87.30
53422;DHT22;39319;52.944;5.928;2023-05-31T09:57:38;21.90;87.90
53422;DHT22;39319;52.944;5.928;2023-05-31T10:00:08;22.00;86.20
53422;DHT22;39319;52.944;5.928;2023-05-31T10:02:47;22.20;86.30
53422;DHT22;39319;52.944;5.928;2023-05-31T10:05:15;22.40;87.20
53422;DHT22;39319;52.944;5.928;2023-05-31T10:07:44;22.40;84.90
53422;DHT22;39319;52.944;5.928;2023-05-31T10:10:10;22.40;84.80
53422;DHT22;39319;52.944;5.928;2023-05-31T10:12:57;22.50;85.60
53422;DHT22;39319;52.944;5.928;2023-05-31T10:15:25;22.50;84.80
53422;DHT22;39319;52.944;5.928;2023-05-31T10:18:02;22.50;85.20
53422;DHT22;39319;52.944;5.928;2023-05-31T10:20:44;22.50;84.70
53422;DHT22;39319;52.944;5.928;2023-05-31T10:23:21;22.50;85.10
53422;DHT22;39319;52.944;5.928;2023-05-31T10:28:28;22.40;85.00
53422;DHT22;39319;52.944;5.928;2023-05-31T10:30:57;22.40;85.00
53422;DHT22;39319;52.944;5.928;2023-05-31T10:33:27;22.40;87.00
53422;DHT22;39319;52.944;5.928;2023-05-31T10:35:59;22.70;86.50
53422;DHT22;39319;52.944;5.928;2023-05-31T10:38:32;22.90;85.80
53422;DHT22;39319;52.944;5.928;2023-05-31T10:41:08;23.10;85.60
53422;DHT22;39319;52.944;5.928;2023-05-31T10:43:41;23.30;84.90
53422;DHT22;39319;52.944;5.928;2023-05-31T10:46:14;23.40;84.00
53422;DHT22;39319;52.944;5.928;2023-05-31T10:48:53;23.50;84.10
53422;DHT22;39319;52.944;5.928;2023-05-31T10:51:41;23.70;83.70
53422;DHT22;39319;52.944;5.928;2023-05-31T10:54:07;23.70;83.80
53422;DHT22;39319;52.944;5.928;2023-05-31T10:56:36;23.80;83.10
53422;DHT22;39319;52.944;5.928;2023-05-31T10:59:03;23.80;82.20
53422;DHT22;39319;52.944;5.928;2023-05-31T11:01:30;23.80;82.50
53422;DHT22;39319;52.944;5.928;2023-05-31T11:03:57;23.80;81.90
53422;DHT22;39319;52.944;5.928;2023-05-31T11:06:27;23.80;81.90
53422;DHT22;39319;52.944;5.928;2023-05-31T11:14:06;23.80;81.70
53422;DHT22;39319;52.944;5.928;2023-05-31T11:19:21;24.00;81.60
53422;DHT22;39319;52.944;5.928;2023-05-31T11:24:49;24.10;81.20
53422;DHT22;39319;52.944;5.928;2023-05-31T11:27:17;24.00;80.70
53422;DHT22;39319;52.944;5.928;2023-05-31T11:32:10;23.90;80.30
53422;DHT22;39319;52.944;5.928;2023-05-31T11:34:51;24.00;81.90
53422;DHT22;39319;52.944;5.928;2023-05-31T11:37:23;24.20;81.10
53422;DHT22;39319;52.944;5.928;2023-05-31T11:39:53;24.20;80.20
53422;DHT22;39319;52.944;5.928;2023-05-31T11:42:20;24.30;79.90
53422;DHT22;39319;52.944;5.928;2023-05-31T11:44:47;24.50;79.40
53422;DHT22;39319;52.944;5.928;2023-05-31T11:47:20;24.60;79.30
53422;DHT22;39319;52.944;5.928;2023-05-31T11:49:48;24.60;79.90
53422;DHT22;39319;52.944;5.928;2023-05-31T11:52:19;24.80;80.70
53422;DHT22;39319;52.944;5.928;2023-05-31T11:54:46;24.90;79.40
53422;DHT22;39319;52.944;5.928;2023-05-31T11:57:14;25.00;78.40
53422;DHT22;39319;52.944;5.928;2023-05-31T11:59:42;25.10;77.80
53422;DHT22;39319;52.944;5.928;2023-05-31T12:02:09;25.10;77.30
53422;DHT22;39319;52.944;5.928;2023-05-31T12:04:36;25.10;76.70
53422;DHT22;39319;52.944;5.928;2023-05-31T12:07:06;25.20;77.40
53422;DHT22;39319;52.944;5.928;2023-05-31T12:09:33;25.20;77.00
53422;DHT22;39319;52.944;5.928;2023-05-31T12:12:03;25.30;77.60
53422;DHT22;39319;52.944;5.928;2023-05-31T12:14:31;25.40;76.20
53422;DHT22;39319;52.944;5.928;2023-05-31T12:17:03;25.40;75.70
53422;DHT22;39319;52.944;5.928;2023-05-31T12:19:30;25.50;75.80
53422;DHT22;39319;52.944;5.928;2023-05-31T12:21:56;25.50;75.40
53422;DHT22;39319;52.944;5.928;2023-05-31T12:24:22;25.50;75.20
53422;DHT22;39319;52.944;5.928;2023-05-31T12:26:48;25.60;75.20
53422;DHT22;39319;52.944;5.928;2023-05-31T12:29:15;25.60;75.50
53422;DHT22;39319;52.944;5.928;2023-05-31T12:31:41;25.70;74.10
53422;DHT22;39319;52.944;5.928;2023-05-31T12:34:09;25.60;74.10
53422;DHT22;39319;52.944;5.928;2023-05-31T12:39:27;25.50;73.80
53422;DHT22;39319;52.944;5.928;2023-05-31T12:41:53;25.50;75.60
53422;DHT22;39319;52.944;5.928;2023-05-31T12:44:22;25.60;74.90
53422;DHT22;39319;52.944;5.928;2023-05-31T12:46:49;25.70;74.40
53422;DHT22;39319;52.944;5.928;2023-05-31T12:51:43;25.80;73.50
53422;DHT22;39319;52.944;5.928;2023-05-31T12:54:11;25.60;73.70
53422;DHT22;39319;52.944;5.928;2023-05-31T12:56:37;25.60;73.60
53422;DHT22;39319;52.944;5.928;2023-05-31T12:59:03;25.40;74.10
53422;DHT22;39319;52.944;5.928;2023-05-31T13:01:29;25.50;73.80
53422;DHT22;39319;52.944;5.928;2023-05-31T13:03:54;25.50;73.60
53422;DHT22;39319;52.944;5.928;2023-05-31T13:06:20;25.60;74.20
53422;DHT22;39319;52.944;5.928;2023-05-31T13:08:46;25.60;73.50
53422;DHT22;39319;52.944;5.928;2023-05-31T13:11:12;25.60;74.40
53422;DHT22;39319;52.944;5.928;2023-05-31T13:13:38;25.60;73.60
53422;DHT22;39319;52.944;5.928;2023-05-31T13:16:03;25.70;74.50
53422;DHT22;39319;52.944;5.928;2023-05-31T13:18:30;25.60;73.80
53422;DHT22;39319;52.944;5.928;2023-05-31T13:20:56;25.60;73.40
53422;DHT22;39319;52.944;5.928;2023-05-31T13:23:24;25.60;74.70
53422;DHT22;39319;52.944;5.928;2023-05-31T13:25:50;25.60;75.00
53422;DHT22;39319;52.944;5.928;2023-05-31T13:28:16;25.70;73.20
53422;DHT22;39319;52.944;5.928;2023-05-31T13:30:42;25.70;73.30
53422;DHT22;39319;52.944;5.928;2023-05-31T13:33:08;25.70;72.80
53422;DHT22;39319;52.944;5.928;2023-05-31T13:35:36;25.80;73.10
53422;DHT22;39319;52.944;5.928;2023-05-31T13:38:02;25.80;73.90
53422;DHT22;39319;52.944;5.928;2023-05-31T13:40:28;25.80;73.10
53422;DHT22;39319;52.944;5.928;2023-05-31T13:42:54;25.10;72.40
53422;DHT22;39319;52.944;5.928;2023-05-31T13:45:20;25.70;73.10
53422;DHT22;39319;52.944;5.928;2023-05-31T13:47:45;25.70;73.00
53422;DHT22;39319;52.944;5.928;2023-05-31T13:50:11;25.70;72.40
53422;DHT22;39319;52.944;5.928;2023-05-31T13:52:37;25.80;72.10
53422;DHT22;39319;52.944;5.928;2023-05-31T13:55:03;25.70;72.20
53422;DHT22;39319;52.944;5.928;2023-05-31T13:57:29;25.70;72.50
53422;DHT22;39319;52.944;5.928;2023-05-31T13:59:54;25.70;72.60
53422;DHT22;39319;52.944;5.928;2023-05-31T14:02:23;25.80;72.60
53422;DHT22;39319;52.944;5.928;2023-05-31T14:04:49;25.80;72.80
53422;DHT22;39319;52.944;5.928;2023-05-31T14:07:15;25.80;72.60
53422;DHT22;39319;52.944;5.928;2023-05-31T14:09:41;25.80;72.90
53422;DHT22;39319;52.944;5.928;2023-05-31T14:12:07;25.80;72.20
53422;DHT22;39319;52.944;5.928;2023-05-31T14:14:33;25.80;71.80
53422;DHT22;39319;52.944;5.928;2023-05-31T14:16:59;25.90;71.60
53422;DHT22;39319;52.944;5.928;2023-05-31T14:19:26;25.80;72.40
53422;DHT22;39319;52.944;5.928;2023-05-31T14:21:52;25.80;71.40
53422;DHT22;39319;52.944;5.928;2023-05-31T14:24:18;25.90;72.80
53422;DHT22;39319;52.944;5.928;2023-05-31T14:26:43;25.90;71.90
53422;DHT22;39319;52.944;5.928;2023-05-31T14:29:09;25.90;71.20
53422;DHT22;39319;52.944;5.928;2023-05-31T14:31:35;25.90;71.20
53422;DHT22;39319;52.944;5.928;2023-05-31T14:34:03;25.90;71.40
53422;DHT22;39319;52.944;5.928;2023-05-31T14:36:29;26.00;71.10
53422;DHT22;39319;52.944;5.928;2023-05-31T14:38:55;26.00;71.00
53422;DHT22;39319;52.944;5.928;2023-05-31T14:41:21;25.90;71.60
53422;DHT22;39319;52.944;5.928;2023-05-31T14:43:47;25.90;71.50
53422;DHT22;39319;52.944;5.928;2023-05-31T14:46:13;25.90;71.30
53422;DHT22;39319;52.944;5.928;2023-05-31T14:48:40;26.00;71.40
53422;DHT22;39319;52.944;5.928;2023-05-31T14:51:06;26.00;71.20
53422;DHT22;39319;52.944;5.928;2023-05-31T14:53:32;26.00;71.20
53422;DHT22;39319;52.944;5.928;2023-05-31T14:55:58;26.00;70.60
53422;DHT22;39319;52.944;5.928;2023-05-31T14:58:25;26.00;70.70
53422;DHT22;39319;52.944;5.928;2023-05-31T15:00:51;26.00;71.70
53422;DHT22;39319;52.944;5.928;2023-05-31T15:03:17;26.00;71.70
53422;DHT22;39319;52.944;5.928;2023-05-31T15:05:42;26.10;70.10
53422;DHT22;39319;52.944;5.928;2023-05-31T15:08:08;26.00;70.90
53422;DHT22;39319;52.944;5.928;2023-05-31T15:10:34;26.00;70.00
53422;DHT22;39319;52.944;5.928;2023-05-31T15:12:59;26.00;69.80
53422;DHT22;39319;52.944;5.928;2023-05-31T15:15:25;26.00;69.70
53422;DHT22;39319;52.944;5.928;2023-05-31T15:17:51;25.90;70.30
53422;DHT22;39319;52.944;5.928;2023-05-31T15:20:17;25.70;70.00
53422;DHT22;39319;52.944;5.928;2023-05-31T15:22:44;25.60;70.80
53422;DHT22;39319;52.944;5.928;2023-05-31T15:25:10;25.50;70.20
53422;DHT22;39319;52.944;5.928;2023-05-31T15:27:38;25.40;71.20
53422;DHT22;39319;52.944;5.928;2023-05-31T15:30:04;25.30;70.70
53422;DHT22;39319;52.944;5.928;2023-05-31T15:32:30;25.20;71.10
53422;DHT22;39319;52.944;5.928;2023-05-31T15:34:58;25.10;71.10
53422;DHT22;39319;52.944;5.928;2023-05-31T15:37:23;25.00;71.40
53422;DHT22;39319;52.944;5.928;2023-05-31T15:39:49;24.90;71.40
53422;DHT22;39319;52.944;5.928;2023-05-31T15:42:15;24.80;71.00
53422;DHT22;39319;52.944;5.928;2023-05-31T15:44:41;24.60;72.00
53422;DHT22;39319;52.944;5.928;2023-05-31T15:47:07;24.50;71.60
53422;DHT22;39319;52.944;5.928;2023-05-31T15:49:33;24.40;72.10
53422;DHT22;39319;52.944;5.928;2023-05-31T15:52:01;24.20;72.20
53422;DHT22;39319;52.944;5.928;2023-05-31T15:54:27;24.10;71.90
53422;DHT22;39319;52.944;5.928;2023-05-31T15:56:53;24.00;72.20
53422;DHT22;39319;52.944;5.928;2023-05-31T15:59:19;23.90;72.20
53422;DHT22;39319;52.944;5.928;2023-05-31T16:01:45;23.80;71.90